LLHALCLK

Guest
Details From LLHA - Haifa
To LCLK - Larnaca
Flight Number -
Tags generated
Created
Modified
Stats Distance 143 nm / 266 km
Max Altitude 4,100 ft / 1,250 m
Waypoints 3
Social Downloads 0
Likes 0
Share VATSIM

Download

Looking for another format? Having issues loading an existing format? Contact us
Advertisement - Login to hide

Notes

Basic altitude profile: - Ascent Rate: 500ft/min - Ascent Speed: 80kts - Cruise Altitude: 6500ft - Cruise Speed: 110kts - Descent Rate: 700ft/min - Descent Speed: 100kts Options: - Use NATs: no - Use PACOTS: no - Use low airways: no - Use high airways: no

Route

LLHA 3300N03500E LCLK

ID Type Via Altitude Latitude Longitude Leg Dist Tot Dist Heading (true) Name
O LLHA APT - 0 ft / 0 m 32.81113˚ 35.04414˚ - 0 nm - Haifa
3300N03500E LATLON - 4,100 ft / 1,250 m 33.00000˚ 35.00000˚ 11 nm 11 nm 349° / 349° -
O LCLK APT - 0 ft / 0 m 34.87512˚ 33.62483˚ 131 nm 143 nm 329° / 328° Larnaca

Altitude Profile

Advertisement - Login to hide

LLHA

Details ICAO LLHA (HFA)
Name Haifa
Region Israel
Timezone Asia/Jerusalem (UTC+2.0)
Stats Elevation 28 ft / 9 m (AMSL)
Location 32.811125° 35.044139°
Runways 1
Magnetic Variation 4.781° E

METAR

LLHA 111650Z 14004KT CAVOK 16/06 Q1023

Decode

TAF

TAF LLHA 111112Z 1112/1212 36010KT CAVOK BECMG 1115/1118 06008KT BECMG 1120/1122 12015KT TEMPO 1203/1212 12018G28KT TX22/1112Z TN16/1204Z

Decode

Departure Runways

ID Width Length Bearing (true) Bearing (mag) Surface Threshold Offset Overrun Length
16 98 ft / 30 m 4,161 ft / 1,268 m 158.88° 154.10° Asphalt 164 ft / 50 m 0 ft / 0 m
34 98 ft / 30 m 4,161 ft / 1,268 m 338.88° 334.10° Asphalt 380 ft / 116 m 90 ft / 27 m

LCLK

Details ICAO LCLK (LCA)
Name Larnaca
Region Cyprus
Timezone Asia/Nicosia (UTC+2.0)
Stats Elevation 8 ft / 2 m (AMSL)
Location 34.875115° 33.624832°
Runways 1
Magnetic Variation 4.990° E

METAR

LCLK 111730Z 34005KT CAVOK 14/12 Q1025 NOSIG

Decode

TAF

TAF LCLK 111130Z 1112/1212 06012KT 9999 FEW030 BECMG 1115/1118 36009KT BECMG 1205/1208 06011KT

Decode

Destination Runways

ID Width Length Bearing (true) Bearing (mag) Surface Threshold Offset Overrun Length
04 148 ft / 45 m 9,771 ft / 2,978 m 45.15° 40.16° Asphalt 0 ft / 0 m 210 ft / 64 m
22 148 ft / 45 m 9,771 ft / 2,978 m 225.17° 220.18° Asphalt 575 ft / 175 m 0 ft / 0 m

Approach Navaids

Runway Type Ident Frequency Range Bearing (true) Bearing (mag) Slope Elevation
22 Localiser ILC 110.30 MHz 18 nm / 33 km 225.17° 220.18° - 8 ft / 2 m (AMSL)
22 Glidescope ILC 110.30 MHz 10 nm / 19 km 225.16° 220.17° 2.75° 24 ft / 7 m (AMSL)
22 DME ILC 110.30 MHz 18 nm / 33 km - - - 20 ft / 6 m (AMSL)

Popular Alternatives